Lancaster, Texas
Current Conditions -  °F | °C
As of 2:35 PM on Friday 28 Nov 2014 (Local Time) from KLNC Reporting Station
Clear Clear  
Wind Chill: 68°   Ceiling: Unl
Heat Index: 68°   Visibility: 10mi
Dew Point: 47°   Wind: 17mph
Humidity: 47%   Direction: 190°S
Pressure: 30.09"   Gusts: 28mph
Location:  32.59°N, 96.75°W
Report Text: KLNC 282035Z AUTO 19015G24KT 10SM CLR 20/08 A3009 RMK AO2 T01990083
Loading
Personal Weather Stations






























Interactive Weather Map New forecast layout! Learn more

10-Day Weather Forecast

Advertisements
Track Severe Weather on mobile